Time;durP1;ratioP1;P1;durP2;ratioP2;P2;SDS_P1;SDS_P2;PMS_P1;PMS_P2;Temp;Humidity;BMP_temperature;BMP_pressure;BME280_temperature;BME280_humidity;BME280_pressure;Samples;Min_cycle;Max_cycle;Signal;HPM_P1;HPM_P2
2022/08/12 00:45:13;;;;;;;2.40;2.20;;;;;;;;;;5068441;28;20297;-65
2022/08/12 00:47:40;;;;;;;3.33;2.20;;;;;;;;;;5061835;28;20201;-65
2022/08/12 00:50:16;;;;;;;2.00;1.90;;;;;;;;;;5050896;28;20254;-67
2022/08/12 00:52:47;;;;;;;3.43;2.10;;;;;;;;;;5061468;28;20678;-67
2022/08/12 00:55:16;;;;;;;2.20;2.03;;;;;;;;;;5063991;28;20228;-65
2022/08/12 00:57:46;;;;;;;3.00;2.00;;;;;;;;;;5058546;28;20539;-66
2022/08/12 01:00:17;;;;;;;3.00;2.30;;;;;;;;;;5054811;28;20315;-64
2022/08/12 01:02:46;;;;;;;2.80;2.00;;;;;;;;;;5078103;28;20213;-66
2022/08/12 01:13:35;;;;;;;2.87;2.40;;;;;;;;;;5062498;28;20213;-63
2022/08/12 01:16:04;;;;;;;3.00;2.30;;;;;;;;;;5055929;28;20237;-67
2022/08/12 01:18:33;;;;;;;4.60;2.13;;;;;;;;;;5061526;28;20214;-64
2022/08/12 01:21:06;;;;;;;2.60;2.40;;;;;;;;;;5057079;28;20206;-65
2022/08/12 01:23:53;;;;;;;2.47;2.27;;;;;;;;;;5061456;28;20201;-66
2022/08/12 01:26:24;;;;;;;4.20;2.30;;;;;;;;;;5055996;28;20210;-65
2022/08/12 01:28:57;;;;;;;2.40;2.20;;;;;;;;;;5061511;28;20221;-66
2022/08/12 01:31:26;;;;;;;4.33;2.37;;;;;;;;;;5042854;28;20206;-66
2022/08/12 01:34:07;;;;;;;3.83;2.80;;;;;;;;;;5044787;28;20259;-66
2022/08/12 01:36:59;;;;;;;2.60;2.40;;;;;;;;;;5061214;28;20265;-66
2022/08/12 01:39:31;;;;;;;2.53;2.33;;;;;;;;;;5062547;28;20651;-67
2022/08/12 01:42:02;;;;;;;3.80;2.40;;;;;;;;;;5057159;28;20206;-67
2022/08/12 01:44:31;;;;;;;2.40;2.20;;;;;;;;;;5062469;28;20217;-63
2022/08/12 01:47:05;;;;;;;3.07;2.10;;;;;;;;;;5057303;28;20692;-66
2022/08/12 01:49:38;;;;;;;3.80;2.43;;;;;;;;;;5062334;28;20217;-66
2022/08/12 01:52:08;;;;;;;3.63;2.07;;;;;;;;;;5044676;28;20276;-65
2022/08/12 01:54:49;;;;;;;2.43;2.20;;;;;;;;;;5059310;28;20199;-66
2022/08/12 01:57:23;;;;;;;2.23;2.03;;;;;;;;;;5060844;28;20229;-65
2022/08/12 02:00:12;;;;;;;2.00;1.90;;;;;;;;;;5062481;28;20278;-67
2022/08/12 02:02:46;;;;;;;2.73;1.93;;;;;;;;;;5063618;28;20210;-66
2022/08/12 02:11:21;;;;;;;2.93;2.10;;;;;;;;;;5060088;28;20745;-66
2022/08/12 02:13:59;;;;;;;2.60;2.27;;;;;;;;;;5040526;28;20217;-66
2022/08/12 02:16:45;;;;;;;3.83;2.30;;;;;;;;;;5065336;28;20214;-65
2022/08/12 02:19:12;;;;;;;2.43;2.23;;;;;;;;;;5065803;28;20226;-65
2022/08/12 02:22:08;;;;;;;2.47;2.07;;;;;;;;;;5055534;28;20220;-66
2022/08/12 02:24:37;;;;;;;2.50;2.30;;;;;;;;;;5079565;28;20212;-66
2022/08/12 02:27:07;;;;;;;2.73;2.10;;;;;;;;;;5074760;28;20205;-66
2022/08/12 02:29:35;;;;;;;2.80;2.30;;;;;;;;;;5050293;28;20230;-66
2022/08/12 02:32:03;;;;;;;2.60;2.20;;;;;;;;;;5065925;28;20224;-67
2022/08/12 02:34:31;;;;;;;3.70;2.13;;;;;;;;;;5060539;28;20196;-66
2022/08/12 02:36:59;;;;;;;3.70;2.30;;;;;;;;;;5046700;28;20225;-65
2022/08/12 02:39:32;;;;;;;3.97;2.57;;;;;;;;;;5065446;28;20334;-67
2022/08/12 02:42:02;;;;;;;2.90;2.37;;;;;;;;;;5069783;28;20219;-64
2022/08/12 02:44:31;;;;;;;3.07;2.23;;;;;;;;;;5042418;28;20203;-66
2022/08/12 02:47:00;;;;;;;2.73;2.50;;;;;;;;;;5057547;28;20291;-65
2022/08/12 02:49:30;;;;;;;2.40;2.20;;;;;;;;;;5084031;28;20226;-66
2022/08/12 02:51:59;;;;;;;4.60;2.60;;;;;;;;;;5055398;28;20196;-65
2022/08/12 02:54:27;;;;;;;2.57;2.37;;;;;;;;;;5066823;28;20270;-64
2022/08/12 02:56:54;;;;;;;2.07;1.97;;;;;;;;;;5065601;28;20224;-67
2022/08/12 02:59:23;;;;;;;2.47;2.27;;;;;;;;;;5052193;28;20656;-66
2022/08/12 03:01:55;;;;;;;2.90;2.70;;;;;;;;;;5060756;28;20202;-66
2022/08/12 03:04:27;;;;;;;2.40;2.20;;;;;;;;;;5062155;28;20202;-63
2022/08/12 03:07:13;;;;;;;2.60;2.40;;;;;;;;;;5068891;28;20214;-66
2022/08/12 03:09:50;;;;;;;2.90;2.70;;;;;;;;;;5065065;28;20237;-66
2022/08/12 03:12:35;;;;;;;2.60;2.40;;;;;;;;;;5060486;28;20197;-66
2022/08/12 03:15:19;;;;;;;3.23;2.63;;;;;;;;;;5063612;28;20298;-65
2022/08/12 03:17:50;;;;;;;2.70;2.50;;;;;;;;;;5052634;28;20225;-67
2022/08/12 03:20:39;;;;;;;3.40;2.50;;;;;;;;;;5047930;28;20235;-66
2022/08/12 03:23:12;;;;;;;3.13;2.80;;;;;;;;;;5052742;28;20208;-65
2022/08/12 03:25:57;;;;;;;3.20;2.67;;;;;;;;;;5051920;28;20285;-66
2022/08/12 03:31:12;;;;;;;2.70;2.50;;;;;;;;;;5066523;28;20279;-65
2022/08/12 03:33:43;;;;;;;2.53;2.23;;;;;;;;;;5065209;28;20202;-67
2022/08/12 03:36:29;;;;;;;2.50;2.33;;;;;;;;;;5058414;28;20312;-66
2022/08/12 03:41:56;;;;;;;3.80;2.53;;;;;;;;;;5060906;28;20244;-66
2022/08/12 04:01:02;;;;;;;3.03;2.83;;;;;;;;;;5049314;28;20301;-64
2022/08/12 04:06:17;;;;;;;4.90;2.80;;;;;;;;;;5047417;28;20289;-66
2022/08/12 04:09:04;;;;;;;5.33;4.53;;;;;;;;;;5047725;28;20227;-65
2022/08/12 04:14:30;;;;;;;3.70;3.00;;;;;;;;;;5048089;28;20598;-66
2022/08/12 04:16:57;;;;;;;3.70;3.40;;;;;;;;;;5047964;28;20229;-66
2022/08/12 04:19:25;;;;;;;4.47;4.03;;;;;;;;;;5043985;28;20277;-64
2022/08/12 04:21:56;;;;;;;4.63;3.77;;;;;;;;;;5029297;28;20364;-66
2022/08/12 04:24:28;;;;;;;4.07;3.57;;;;;;;;;;5032442;28;20205;-63
2022/08/12 04:26:57;;;;;;;3.23;2.80;;;;;;;;;;5029397;28;20209;-66
2022/08/12 04:29:25;;;;;;;4.37;3.00;;;;;;;;;;5031927;28;20250;-66
2022/08/12 04:32:14;;;;;;;3.40;3.10;;;;;;;;;;5048139;28;20339;-66
2022/08/12 04:34:43;;;;;;;5.30;3.13;;;;;;;;;;5055935;28;20225;-63
2022/08/12 04:37:11;;;;;;;3.33;3.03;;;;;;;;;;5046766;28;20233;-63
2022/08/12 04:39:39;;;;;;;3.60;3.30;;;;;;;;;;5041075;28;20214;-65
2022/08/12 04:42:07;;;;;;;7.10;3.30;;;;;;;;;;5042667;28;20209;-66
2022/08/12 04:44:34;;;;;;;7.23;3.50;;;;;;;;;;5062978;28;20668;-65
2022/08/12 04:47:01;;;;;;;3.77;3.37;;;;;;;;;;5032163;28;20303;-65
2022/08/12 04:49:30;;;;;;;3.30;3.00;;;;;;;;;;5032587;28;20228;-65
2022/08/12 04:51:59;;;;;;;3.63;3.27;;;;;;;;;;5029728;28;20212;-66
2022/08/12 04:54:27;;;;;;;4.57;3.23;;;;;;;;;;5030200;28;20212;-65
2022/08/12 04:56:54;;;;;;;3.53;3.20;;;;;;;;;;5029134;28;21274;-62
2022/08/12 04:59:31;;;;;;;4.03;3.30;;;;;;;;;;5033025;28;20233;-66
2022/08/12 05:02:16;;;;;;;5.43;4.93;;;;;;;;;;5041896;28;20204;-64
2022/08/12 05:04:50;;;;;;;7.43;6.00;;;;;;;;;;5049035;28;20204;-66
2022/08/12 05:07:18;;;;;;;10.57;7.53;;;;;;;;;;5050441;28;20204;-66
2022/08/12 05:09:45;;;;;;;4.87;3.67;;;;;;;;;;5045504;28;20239;-65
2022/08/12 05:12:35;;;;;;;5.00;4.13;;;;;;;;;;5030994;28;20287;-66
2022/08/12 05:15:04;;;;;;;4.97;3.70;;;;;;;;;;5046110;28;20679;-65
2022/08/12 05:17:51;;;;;;;4.23;3.37;;;;;;;;;;5044642;28;20345;-66
2022/08/12 05:20:19;;;;;;;3.57;3.27;;;;;;;;;;5031402;28;20248;-65
2022/08/12 05:22:48;;;;;;;4.43;3.57;;;;;;;;;;5036344;28;20845;-66
2022/08/12 05:25:23;;;;;;;4.00;3.10;;;;;;;;;;5035158;28;20998;-65
2022/08/12 05:27:52;;;;;;;3.40;3.10;;;;;;;;;;5041287;28;20202;-66
2022/08/12 05:30:33;;;;;;;3.83;3.30;;;;;;;;;;5048505;28;20221;-66
2022/08/12 05:33:04;;;;;;;3.63;2.90;;;;;;;;;;5047418;28;20209;-64
2022/08/12 05:35:38;;;;;;;3.83;3.07;;;;;;;;;;5033521;28;20212;-67
2022/08/12 05:40:52;;;;;;;4.43;2.63;;;;;;;;;;5070267;28;20297;-65
2022/08/12 05:43:20;;;;;;;4.23;2.63;;;;;;;;;;5070284;28;20230;-65
2022/08/12 05:45:48;;;;;;;4.63;2.65;;;;;;;;;;5065645;28;20210;-66
2022/08/12 05:48:17;;;;;;;2.75;2.45;;;;;;;;;;5051590;28;20210;-65
2022/08/12 05:50:45;;;;;;;2.40;2.17;;;;;;;;;;5058636;28;20317;-65
2022/08/12 05:53:12;;;;;;;3.10;2.10;;;;;;;;;;5052650;28;20201;-66
2022/08/12 05:55:40;;;;;;;2.40;2.20;;;;;;;;;;5049330;28;20730;-66
2022/08/12 05:58:07;;;;;;;3.40;2.00;;;;;;;;;;5056318;28;20240;-63
2022/08/12 06:00:35;;;;;;;2.85;1.90;;;;;;;;;;5036156;28;20183;-66
2022/08/12 06:03:04;;;;;;;2.10;1.80;;;;;;;;;;5049436;28;20641;-66
2022/08/12 06:05:37;;;;;;;2.13;1.88;;;;;;;;;;5050881;28;20252;-66
2022/08/12 06:08:22;;;;;;;2.10;1.95;;;;;;;;;;5046960;28;20225;-66
2022/08/12 06:10:49;;;;;;;2.22;2.03;;;;;;;;;;5039203;28;20202;-66
2022/08/12 06:13:17;;;;;;;2.75;2.08;;;;;;;;;;5050345;28;20208;-68
2022/08/12 06:16:08;;;;;;;3.88;2.40;;;;;;;;;;5050914;28;20260;-66
2022/08/12 06:18:39;;;;;;;3.75;2.00;;;;;;;;;;5055407;28;20222;-66
2022/08/12 06:21:11;;;;;;;4.80;2.42;;;;;;;;;;5052287;28;20213;-65
2022/08/12 06:23:39;;;;;;;2.80;2.00;;;;;;;;;;5046554;28;20201;-65
2022/08/12 06:26:11;;;;;;;2.50;2.30;;;;;;;;;;5064828;28;20228;-65
2022/08/12 06:28:39;;;;;;;2.92;2.28;;;;;;;;;;5050499;28;20238;-65
2022/08/12 06:31:07;;;;;;;2.80;2.47;;;;;;;;;;5040098;28;20251;-64
2022/08/12 06:33:54;;;;;;;4.57;2.10;;;;;;;;;;5052297;28;20664;-67
2022/08/12 06:36:41;;;;;;;3.38;2.05;;;;;;;;;;5049684;28;20247;-65
2022/08/12 06:39:09;;;;;;;2.53;1.95;;;;;;;;;;5053458;28;20234;-66
2022/08/12 06:44:49;;;;;;;2.30;1.98;;;;;;;;;;5052971;28;20590;-65
2022/08/12 06:47:18;;;;;;;2.42;2.22;;;;;;;;;;5052519;28;20765;-66
2022/08/12 06:49:47;;;;;;;2.53;2.33;;;;;;;;;;5035366;28;20256;-65
2022/08/12 06:52:16;;;;;;;2.97;2.00;;;;;;;;;;5051871;28;20221;-65
2022/08/12 06:54:44;;;;;;;2.60;2.13;;;;;;;;;;5051956;28;20683;-66
2022/08/12 06:57:12;;;;;;;2.58;2.00;;;;;;;;;;5067472;28;20221;-65
2022/08/12 06:59:59;;;;;;;3.00;1.90;;;;;;;;;;5047193;28;20310;-66
2022/08/12 07:02:26;;;;;;;2.42;2.22;;;;;;;;;;5040606;28;20254;-64
2022/08/12 07:04:54;;;;;;;2.28;2.17;;;;;;;;;;5051774;28;20201;-67
2022/08/12 07:07:21;;;;;;;3.00;2.22;;;;;;;;;;5034153;28;20205;-64
2022/08/12 07:09:50;;;;;;;4.57;2.42;;;;;;;;;;5053574;28;20230;-66
2022/08/12 07:12:33;;;;;;;3.40;2.13;;;;;;;;;;5052966;28;20343;-65
2022/08/12 07:15:01;;;;;;;2.00;1.90;;;;;;;;;;5046109;28;20677;-66
2022/08/12 07:17:34;;;;;;;1.98;1.88;;;;;;;;;;5033511;28;20925;-65
2022/08/12 07:20:08;;;;;;;5.22;2.33;;;;;;;;;;5035710;28;20236;-66
2022/08/12 07:22:56;;;;;;;4.75;2.20;;;;;;;;;;5055701;28;20255;-66
2022/08/12 07:25:30;;;;;;;2.60;1.95;;;;;;;;;;5034992;28;20570;-65
2022/08/12 07:28:07;;;;;;;3.13;2.35;;;;;;;;;;5053159;28;20265;-64
2022/08/12 07:30:43;;;;;;;2.20;2.00;;;;;;;;;;5052735;28;20213;-66
2022/08/12 07:33:12;;;;;;;8.65;2.17;;;;;;;;;;5050476;28;20671;-66
2022/08/12 07:35:44;;;;;;;4.68;2.13;;;;;;;;;;5054383;28;20689;-66
2022/08/12 07:38:25;;;;;;;3.63;2.00;;;;;;;;;;5050241;28;20221;-66
2022/08/12 07:41:04;;;;;;;4.00;2.03;;;;;;;;;;5067254;28;20219;-66
2022/08/12 07:43:34;;;;;;;2.75;1.98;;;;;;;;;;5050414;28;20217;-66
2022/08/12 07:46:04;;;;;;;2.15;1.80;;;;;;;;;;5070208;28;20212;-66
2022/08/12 07:48:36;;;;;;;2.88;1.83;;;;;;;;;;5051861;28;20240;-65
2022/08/12 07:51:03;;;;;;;1.95;1.75;;;;;;;;;;5050086;28;20209;-66
2022/08/12 07:53:31;;;;;;;4.25;1.90;;;;;;;;;;5036158;28;20222;-66
2022/08/12 07:55:58;;;;;;;2.90;2.05;;;;;;;;;;5044298;28;20202;-66
2022/08/12 07:58:26;;;;;;;3.42;2.22;;;;;;;;;;5046157;28;20602;-66
2022/08/12 08:00:56;;;;;;;4.22;2.22;;;;;;;;;;5047502;28;20658;-64
2022/08/12 08:03:24;;;;;;;2.38;1.90;;;;;;;;;;5047638;28;20764;-66
2022/08/12 08:05:52;;;;;;;3.15;2.00;;;;;;;;;;5047746;28;20810;-64
2022/08/12 08:08:21;;;;;;;3.25;2.00;;;;;;;;;;5048612;28;20213;-67
2022/08/12 08:10:50;;;;;;;2.80;1.60;;;;;;;;;;5039022;28;20215;-65
2022/08/12 08:13:17;;;;;;;1.90;1.80;;;;;;;;;;5052379;28;20626;-66
2022/08/12 08:15:45;;;;;;;4.05;1.90;;;;;;;;;;5056659;28;20213;-66
2022/08/12 08:18:30;;;;;;;2.13;1.92;;;;;;;;;;5040612;28;20237;-66
2022/08/12 08:20:57;;;;;;;2.38;1.60;;;;;;;;;;5033880;28;20209;-65
2022/08/12 08:26:14;;;;;;;2.97;1.92;;;;;;;;;;5048976;28;20213;-65
2022/08/12 08:28:42;;;;;;;2.05;1.52;;;;;;;;;;5034166;28;20225;-66
2022/08/12 08:31:11;;;;;;;4.22;1.80;;;;;;;;;;5048099;28;20209;-66
2022/08/12 08:33:40;;;;;;;2.90;1.55;;;;;;;;;;5051436;28;20255;-66
2022/08/12 08:36:27;;;;;;;2.60;1.80;;;;;;;;;;5047428;28;20294;-64
2022/08/12 08:38:55;;;;;;;3.45;2.10;;;;;;;;;;5048661;28;20313;-65
2022/08/12 08:44:35;;;;;;;2.33;1.88;;;;;;;;;;5050607;28;20283;-64
2022/08/12 08:47:04;;;;;;;4.25;1.63;;;;;;;;;;5033897;28;20695;-66
2022/08/12 08:49:31;;;;;;;3.72;1.90;;;;;;;;;;5049390;28;20233;-65
2022/08/12 08:52:04;;;;;;;1.80;1.70;;;;;;;;;;5046502;28;20209;-65
2022/08/12 08:54:32;;;;;;;3.22;1.98;;;;;;;;;;5035159;28;20214;-66
2022/08/12 08:57:00;;;;;;;3.83;2.03;;;;;;;;;;5042430;28;20214;-64
2022/08/12 08:59:28;;;;;;;2.30;1.80;;;;;;;;;;5052718;28;20241;-66
2022/08/12 09:01:56;;;;;;;2.10;1.90;;;;;;;;;;5048823;28;20206;-67
2022/08/12 09:04:24;;;;;;;2.78;1.60;;;;;;;;;;5045508;28;20537;-65
2022/08/12 09:07:11;;;;;;;2.45;1.80;;;;;;;;;;5043496;28;20205;-64
2022/08/12 09:09:44;;;;;;;1.73;1.60;;;;;;;;;;5039918;28;20228;-64
2022/08/12 09:15:22;;;;;;;4.72;1.90;;;;;;;;;;5055081;28;20198;-64
2022/08/12 09:18:10;;;;;;;1.60;1.50;;;;;;;;;;5065448;28;20637;-66
2022/08/12 09:20:40;;;;;;;1.85;1.60;;;;;;;;;;5050548;28;20230;-67
2022/08/12 09:23:10;;;;;;;1.92;1.50;;;;;;;;;;5056563;28;20305;-66
2022/08/12 09:25:59;;;;;;;2.65;1.67;;;;;;;;;;5057007;28;20213;-65
2022/08/12 09:28:47;;;;;;;3.58;1.90;;;;;;;;;;5045827;28;20323;-66
2022/08/12 09:31:18;;;;;;;2.05;1.80;;;;;;;;;;5034742;28;20312;-66
2022/08/12 09:34:07;;;;;;;3.90;1.80;;;;;;;;;;5049875;28;20751;-65
2022/08/12 09:36:55;;;;;;;1.60;1.50;;;;;;;;;;5066940;28;20206;-65
2022/08/12 09:39:31;;;;;;;3.70;1.92;;;;;;;;;;5070471;28;20233;-66
2022/08/12 09:45:45;;;;;;;2.75;1.58;;;;;;;;;;5034608;28;20398;-66
2022/08/12 09:48:33;;;;;;;5.55;1.75;;;;;;;;;;5051793;28;20671;-66
2022/08/12 09:51:03;;;;;;;2.47;1.55;;;;;;;;;;5049249;28;20223;-67
2022/08/12 09:53:37;;;;;;;2.55;1.80;;;;;;;;;;5050647;28;20213;-64
2022/08/12 09:56:07;;;;;;;1.67;1.58;;;;;;;;;;5051248;28;20312;-66
2022/08/12 09:58:55;;;;;;;2.22;1.63;;;;;;;;;;5061266;28;20333;-65
2022/08/12 10:01:27;;;;;;;1.70;1.60;;;;;;;;;;5056690;28;20630;-65
2022/08/12 10:04:14;;;;;;;3.00;1.80;;;;;;;;;;5038620;28;20319;-66
2022/08/12 10:06:46;;;;;;;1.70;1.60;;;;;;;;;;5037221;28;20220;-65
2022/08/12 10:09:24;;;;;;;2.03;1.70;;;;;;;;;;5069675;28;20233;-64
2022/08/12 10:15:30;;;;;;;1.80;1.50;;;;;;;;;;4993455;28;20216;-63
2022/08/12 10:18:18;;;;;;;2.28;1.60;;;;;;;;;;5037905;28;20229;-64
2022/08/12 10:20:46;;;;;;;2.65;1.60;;;;;;;;;;5053767;28;20210;-64
2022/08/12 10:23:14;;;;;;;2.13;1.70;;;;;;;;;;5053009;28;20453;-65
2022/08/12 10:31:55;;;;;;;3.28;1.27;;;;;;;;;;5052545;28;20219;-65
2022/08/12 10:34:43;;;;;;;3.40;1.70;;;;;;;;;;5052993;28;20305;-65
2022/08/12 10:37:20;;;;;;;1.90;1.60;;;;;;;;;;5049650;28;20205;-64
2022/08/12 10:40:10;;;;;;;2.38;1.63;;;;;;;;;;5052299;28;20282;-65
2022/08/12 10:45:34;;;;;;;2.58;1.50;;;;;;;;;;5055908;28;20286;-65
2022/08/12 10:48:04;;;;;;;2.92;1.60;;;;;;;;;;5055071;28;20282;-66
2022/08/12 10:50:48;;;;;;;2.35;1.60;;;;;;;;;;5057273;28;20622;-65
2022/08/12 10:53:33;;;;;;;2.10;1.60;;;;;;;;;;5053920;28;20739;-64
2022/08/12 10:56:13;;;;;;;2.35;1.65;;;;;;;;;;5049355;28;20218;-66
2022/08/12 10:58:40;;;;;;;3.90;1.67;;;;;;;;;;5050593;28;20232;-65
2022/08/12 11:01:14;;;;;;;2.38;2.17;;;;;;;;;;5052863;28;20869;-65
2022/08/12 11:04:02;;;;;;;1.55;1.48;;;;;;;;;;5061494;28;20230;-65
2022/08/12 11:06:50;;;;;;;3.97;1.70;;;;;;;;;;5055177;28;20610;-65
2022/08/12 11:09:37;;;;;;;5.93;1.80;;;;;;;;;;5049886;28;20237;-66
2022/08/12 11:12:25;;;;;;;2.15;1.95;;;;;;;;;;5049474;28;21024;-66
2022/08/12 11:15:12;;;;;;;1.77;1.63;;;;;;;;;;5051494;28;20220;-65
2022/08/12 11:17:48;;;;;;;2.17;1.85;;;;;;;;;;5046413;28;20201;-65
2022/08/12 11:20:21;;;;;;;2.50;1.83;;;;;;;;;;5048852;28;20314;-66
2022/08/12 11:23:03;;;;;;;5.53;1.80;;;;;;;;;;5033542;28;20387;-65
2022/08/12 11:25:51;;;;;;;1.63;1.52;;;;;;;;;;5057729;28;20236;-65
2022/08/12 11:28:25;;;;;;;1.50;1.40;;;;;;;;;;5050883;28;20311;-65
2022/08/12 11:31:04;;;;;;;2.90;1.80;;;;;;;;;;5049092;28;20218;-67
2022/08/12 11:33:31;;;;;;;2.40;1.65;;;;;;;;;;5030496;28;20214;-66
2022/08/12 11:36:19;;;;;;;2.78;2.55;;;;;;;;;;5037934;28;20254;-67
2022/08/12 11:38:50;;;;;;;4.32;1.90;;;;;;;;;;5067812;28;20230;-67
2022/08/12 11:41:18;;;;;;;2.58;1.70;;;;;;;;;;5060895;28;20267;-67
2022/08/12 11:43:58;;;;;;;1.75;1.65;;;;;;;;;;5065354;28;20198;-66
2022/08/12 11:46:39;;;;;;;2.05;1.55;;;;;;;;;;5059666;28;20662;-67
2022/08/12 11:49:07;;;;;;;1.60;1.50;;;;;;;;;;5049300;28;20244;-66
2022/08/12 11:51:34;;;;;;;3.78;1.58;;;;;;;;;;5057853;28;20209;-67
2022/08/12 11:54:06;;;;;;;2.17;1.80;;;;;;;;;;5047971;28;20205;-67
2022/08/12 11:56:41;;;;;;;4.18;1.80;;;;;;;;;;5034524;28;20208;-65
2022/08/12 11:59:25;;;;;;;5.30;1.70;;;;;;;;;;5052609;28;20232;-66
2022/08/12 12:02:12;;;;;;;2.97;2.05;;;;;;;;;;5043444;28;20205;-66
2022/08/12 12:04:46;;;;;;;2.45;1.67;;;;;;;;;;5042629;28;20202;-66
2022/08/12 12:07:23;;;;;;;2.80;2.20;;;;;;;;;;5033008;28;20217;-65
2022/08/12 12:10:14;;;;;;;2.55;1.63;;;;;;;;;;5036950;28;20229;-65
2022/08/12 12:12:42;;;;;;;3.83;1.85;;;;;;;;;;5048859;28;20247;-67
2022/08/12 12:15:17;;;;;;;1.60;1.50;;;;;;;;;;5048054;28;20732;-66
2022/08/12 12:17:53;;;;;;;2.83;1.55;;;;;;;;;;5058185;28;20221;-67
2022/08/12 12:20:22;;;;;;;2.47;1.60;;;;;;;;;;5047718;28;20311;-67
2022/08/12 12:22:56;;;;;;;3.25;1.90;;;;;;;;;;5045492;28;20783;-66
2022/08/12 12:25:24;;;;;;;2.35;1.65;;;;;;;;;;5052150;28;20211;-66
2022/08/12 12:28:12;;;;;;;4.18;1.90;;;;;;;;;;5051106;28;20293;-66
2022/08/12 12:30:59;;;;;;;4.07;1.67;;;;;;;;;;5047461;28;20209;-66
2022/08/12 12:33:30;;;;;;;3.20;1.60;;;;;;;;;;5044956;28;20209;-64
2022/08/12 12:36:18;;;;;;;2.47;1.77;;;;;;;;;;5049785;28;20224;-66
2022/08/12 12:38:51;;;;;;;3.38;1.70;;;;;;;;;;5047700;28;20248;-66
2022/08/12 12:41:19;;;;;;;2.53;1.90;;;;;;;;;;5048589;28;20214;-66
2022/08/12 12:43:46;;;;;;;2.10;1.45;;;;;;;;;;5031143;28;20617;-63
2022/08/12 12:46:30;;;;;;;4.35;1.58;;;;;;;;;;5051042;28;20581;-66
2022/08/12 12:48:57;;;;;;;2.38;1.60;;;;;;;;;;5047468;28;20264;-64
2022/08/12 12:51:25;;;;;;;1.50;1.40;;;;;;;;;;5047224;28;20205;-65
2022/08/12 12:54:12;;;;;;;1.60;1.50;;;;;;;;;;5050567;28;21319;-65
2022/08/12 12:56:48;;;;;;;2.85;1.83;;;;;;;;;;5051969;28;20201;-67
2022/08/12 12:59:17;;;;;;;2.42;1.60;;;;;;;;;;5025431;28;20230;-66
2022/08/12 13:02:06;;;;;;;1.80;1.40;;;;;;;;;;5037250;28;20201;-66
2022/08/12 13:04:35;;;;;;;1.40;1.30;;;;;;;;;;5044069;28;20563;-66
2022/08/12 13:07:04;;;;;;;1.98;1.48;;;;;;;;;;5038447;28;20568;-66
2022/08/12 13:09:33;;;;;;;1.70;1.52;;;;;;;;;;5027973;28;21351;-65
2022/08/12 13:12:03;;;;;;;1.63;1.52;;;;;;;;;;5029428;28;20213;-66
2022/08/12 13:14:32;;;;;;;2.33;1.60;;;;;;;;;;5033407;28;20718;-65
2022/08/12 13:17:05;;;;;;;1.63;1.50;;;;;;;;;;5039062;28;20284;-67
2022/08/12 13:19:37;;;;;;;5.13;1.95;;;;;;;;;;5042985;28;20213;-65
2022/08/12 13:22:17;;;;;;;7.30;1.70;;;;;;;;;;5062460;28;20834;-66
2022/08/12 13:24:51;;;;;;;3.80;1.45;;;;;;;;;;5030306;28;20249;-66
2022/08/12 13:27:33;;;;;;;1.48;1.38;;;;;;;;;;5035198;28;20228;-66
2022/08/12 13:30:04;;;;;;;2.13;1.40;;;;;;;;;;5040736;28;20260;-67
2022/08/12 13:32:36;;;;;;;1.58;1.48;;;;;;;;;;5042185;28;20308;-66
2022/08/12 13:35:05;;;;;;;1.90;1.58;;;;;;;;;;5039391;28;21121;-66
2022/08/12 13:37:54;;;;;;;1.27;1.17;;;;;;;;;;5066792;28;20677;-65
2022/08/12 13:40:29;;;;;;;1.77;1.35;;;;;;;;;;5059320;28;23150;-66
2022/08/12 13:42:57;;;;;;;2.25;1.38;;;;;;;;;;5059649;28;20251;-66
2022/08/12 13:45:26;;;;;;;1.48;1.38;;;;;;;;;;5048567;28;20401;-66
2022/08/12 13:47:55;;;;;;;1.40;1.30;;;;;;;;;;5026128;28;20921;-66
2022/08/12 13:50:32;;;;;;;1.77;1.38;;;;;;;;;;5037371;28;21317;-65
2022/08/12 13:53:00;;;;;;;3.70;1.60;;;;;;;;;;5054139;28;20205;-66
2022/08/12 13:55:51;;;;;;;1.50;1.40;;;;;;;;;;5036340;28;20671;-65
2022/08/12 13:58:28;;;;;;;1.15;1.10;;;;;;;;;;5032506;28;20328;-66
2022/08/12 14:00:56;;;;;;;2.67;1.20;;;;;;;;;;5048563;28;20217;-67
2022/08/12 14:03:25;;;;;;;1.90;1.23;;;;;;;;;;5050098;28;20206;-66
2022/08/12 14:05:58;;;;;;;1.90;1.10;;;;;;;;;;5047976;28;20216;-66
2022/08/12 14:08:27;;;;;;;2.95;1.10;;;;;;;;;;5044384;28;20248;-66
2022/08/12 14:11:00;;;;;;;2.20;1.10;;;;;;;;;;5028910;28;20310;-66
2022/08/12 14:13:38;;;;;;;1.48;1.35;;;;;;;;;;5043916;28;20204;-66
2022/08/12 14:16:26;;;;;;;2.67;1.23;;;;;;;;;;5044938;28;20206;-67
2022/08/12 14:19:14;;;;;;;4.00;1.25;;;;;;;;;;5032190;28;20347;-66
2022/08/12 14:21:49;;;;;;;3.15;1.27;;;;;;;;;;5032481;28;20252;-66
2022/08/12 14:24:26;;;;;;;1.67;1.20;;;;;;;;;;5047525;28;20515;-66
2022/08/12 14:26:57;;;;;;;2.25;1.13;;;;;;;;;;5045242;28;20201;-65
2022/08/12 14:29:29;;;;;;;4.13;1.27;;;;;;;;;;5047651;28;20230;-66
2022/08/12 14:32:17;;;;;;;3.08;1.40;;;;;;;;;;5037762;28;20202;-66
2022/08/12 14:34:51;;;;;;;1.40;1.13;;;;;;;;;;5048816;28;20777;-66
2022/08/12 14:37:22;;;;;;;2.17;1.27;;;;;;;;;;5041086;28;20857;-65
2022/08/12 14:40:10;;;;;;;1.83;1.20;;;;;;;;;;5042040;28;20306;-66
2022/08/12 14:42:45;;;;;;;3.85;1.10;;;;;;;;;;5040748;28;20209;-66
2022/08/12 14:45:13;;;;;;;1.58;1.40;;;;;;;;;;5041264;28;20210;-65
2022/08/12 14:47:53;;;;;;;2.83;1.40;;;;;;;;;;5050885;28;20216;-66
2022/08/12 14:50:25;;;;;;;1.45;1.35;;;;;;;;;;5041936;28;20668;-66
2022/08/12 14:53:13;;;;;;;1.10;1.10;;;;;;;;;;5039973;28;20728;-66
2022/08/12 14:56:01;;;;;;;2.97;1.10;;;;;;;;;;5065707;28;20201;-65
2022/08/12 15:01:50;;;;;;;1.33;1.20;;;;;;;;;;5074340;28;20205;-65
2022/08/12 15:04:23;;;;;;;1.83;1.20;;;;;;;;;;5055887;28;20688;-66
2022/08/12 15:06:53;;;;;;;3.90;1.10;;;;;;;;;;5052522;28;20570;-65
2022/08/12 15:09:22;;;;;;;6.82;1.52;;;;;;;;;;5056694;28;20244;-65
2022/08/12 15:11:56;;;;;;;2.50;1.30;;;;;;;;;;5059097;28;20206;-65
2022/08/12 15:14:30;;;;;;;2.25;1.20;;;;;;;;;;5051473;28;20193;-65
2022/08/12 15:16:58;;;;;;;1.88;1.63;;;;;;;;;;5051063;28;20197;-65
2022/08/12 15:19:28;;;;;;;1.52;1.30;;;;;;;;;;5054601;28;20328;-66
2022/08/12 15:22:16;;;;;;;1.67;1.10;;;;;;;;;;5047661;28;20372;-66
2022/08/12 15:25:02;;;;;;;2.47;1.27;;;;;;;;;;5049588;28;20212;-66
2022/08/12 15:27:33;;;;;;;2.55;1.10;;;;;;;;;;5068157;28;20298;-66
2022/08/12 15:30:23;;;;;;;2.17;1.30;;;;;;;;;;5040815;28;20310;-64
2022/08/12 15:32:56;;;;;;;1.45;1.35;;;;;;;;;;5046284;28;20209;-65
2022/08/12 15:35:26;;;;;;;1.45;1.25;;;;;;;;;;5049668;28;20213;-67
2022/08/12 15:38:05;;;;;;;2.17;1.08;;;;;;;;;;5055779;28;20201;-66
2022/08/12 15:40:38;;;;;;;1.98;1.38;;;;;;;;;;5041836;28;20217;-66
2022/08/12 15:43:16;;;;;;;4.30;1.42;;;;;;;;;;5041305;28;20299;-63
2022/08/12 15:46:04;;;;;;;4.05;1.30;;;;;;;;;;5051369;28;20287;-65
2022/08/12 15:48:32;;;;;;;1.33;1.23;;;;;;;;;;5051845;28;20213;-65
2022/08/12 15:51:01;;;;;;;5.10;1.20;;;;;;;;;;5042231;28;20211;-66
2022/08/12 15:56:22;;;;;;;2.03;1.23;;;;;;;;;;5039804;28;20202;-65
2022/08/12 15:58:59;;;;;;;1.80;1.50;;;;;;;;;;5048818;28;20225;-66
2022/08/12 16:01:29;;;;;;;2.70;1.27;;;;;;;;;;5031328;28;20300;-66
2022/08/12 16:04:02;;;;;;;1.95;1.52;;;;;;;;;;5043908;28;20228;-65
2022/08/12 16:06:32;;;;;;;1.95;1.20;;;;;;;;;;5035383;28;20232;-63
2022/08/12 16:09:22;;;;;;;4.28;1.45;;;;;;;;;;5037795;28;20222;-64
2022/08/12 16:12:10;;;;;;;1.73;1.55;;;;;;;;;;5029674;28;20322;-65
2022/08/12 16:14:41;;;;;;;1.60;1.50;;;;;;;;;;5043430;28;20243;-64
2022/08/12 16:17:09;;;;;;;3.22;1.20;;;;;;;;;;5042292;28;20288;-66
2022/08/12 16:19:41;;;;;;;4.88;1.30;;;;;;;;;;5039511;28;20394;-65
2022/08/12 16:22:29;;;;;;;3.53;1.20;;;;;;;;;;5055101;28;20236;-66
2022/08/12 16:24:56;;;;;;;1.70;1.13;;;;;;;;;;5050833;28;20272;-65
2022/08/12 16:27:32;;;;;;;3.10;1.00;;;;;;;;;;5052409;28;20235;-66
2022/08/12 16:30:05;;;;;;;2.28;1.30;;;;;;;;;;5054882;28;20238;-65
2022/08/12 16:32:34;;;;;;;2.47;1.40;;;;;;;;;;5047539;28;20209;-67
2022/08/12 16:35:06;;;;;;;1.40;1.27;;;;;;;;;;5076107;28;20675;-66
2022/08/12 16:37:46;;;;;;;3.33;1.23;;;;;;;;;;5056070;28;20244;-66
2022/08/12 16:40:33;;;;;;;5.25;1.35;;;;;;;;;;5052787;28;20254;-64
2022/08/12 16:43:02;;;;;;;2.42;1.05;;;;;;;;;;5059870;28;20218;-66
2022/08/12 16:45:39;;;;;;;1.05;0.90;;;;;;;;;;5044623;28;20209;-66
2022/08/12 16:48:27;;;;;;;2.45;1.33;;;;;;;;;;5055645;28;20327;-65
2022/08/12 16:51:03;;;;;;;5.47;1.38;;;;;;;;;;5059150;28;20217;-66
2022/08/12 16:53:37;;;;;;;1.60;1.30;;;;;;;;;;5051336;28;20256;-64
2022/08/12 16:56:14;;;;;;;1.40;1.30;;;;;;;;;;5058914;28;20656;-66
2022/08/12 16:58:43;;;;;;;1.55;1.40;;;;;;;;;;5060252;28;20228;-66
2022/08/12 17:01:11;;;;;;;2.38;1.40;;;;;;;;;;5037508;28;20237;-65
2022/08/12 17:03:44;;;;;;;2.10;1.20;;;;;;;;;;5043963;28;20198;-69
2022/08/12 17:06:19;;;;;;;2.30;1.10;;;;;;;;;;5073650;28;20229;-65
2022/08/12 17:08:49;;;;;;;3.38;1.20;;;;;;;;;;5058226;28;20271;-63
2022/08/12 17:11:22;;;;;;;3.85;1.20;;;;;;;;;;5073928;28;20240;-67
2022/08/12 17:13:49;;;;;;;2.70;1.17;;;;;;;;;;5057409;28;20201;-67
2022/08/12 17:16:20;;;;;;;2.17;0.90;;;;;;;;;;5059527;28;20210;-65
2022/08/12 17:18:50;;;;;;;1.88;1.00;;;;;;;;;;5058402;28;20248;-66
2022/08/12 17:21:27;;;;;;;1.83;1.20;;;;;;;;;;5063126;28;20304;-65
2022/08/12 17:24:18;;;;;;;1.27;1.17;;;;;;;;;;5052098;28;20206;-65
2022/08/12 17:26:52;;;;;;;2.15;1.00;;;;;;;;;;5061114;28;20202;-66
2022/08/12 17:29:21;;;;;;;0.77;0.77;;;;;;;;;;5047792;28;20572;-67